sensor_id;sensor_type;location;lat;lon;timestamp;pressure;altitude;pressure_sealevel;temperature;humidity
61324;BME280;47203;48.428;11.974;2023-05-03T00:00:07;97511.91;;;13.02;53.59
61324;BME280;47203;48.428;11.974;2023-05-03T00:02:14;97514.03;;;13.00;53.33
61324;BME280;47203;48.428;11.974;2023-05-03T00:04:19;97504.75;;;12.97;53.62
61324;BME280;47203;48.428;11.974;2023-05-03T00:06:25;97506.63;;;12.97;53.71
61324;BME280;47203;48.428;11.974;2023-05-03T00:08:32;97509.25;;;12.97;53.56
61324;BME280;47203;48.428;11.974;2023-05-03T00:10:37;97511.63;;;12.98;53.64
61324;BME280;47203;48.428;11.974;2023-05-03T00:12:43;97501.84;;;12.99;53.93
61324;BME280;47203;48.428;11.974;2023-05-03T00:14:47;97500.00;;;12.99;54.11
61324;BME280;47203;48.428;11.974;2023-05-03T00:16:52;97497.91;;;13.01;53.91
61324;BME280;47203;48.428;11.974;2023-05-03T00:18:57;97491.53;;;13.02;54.10
61324;BME280;47203;48.428;11.974;2023-05-03T00:21:02;97487.59;;;13.05;54.02
61324;BME280;47203;48.428;11.974;2023-05-03T00:23:07;97489.19;;;13.06;54.00
61324;BME280;47203;48.428;11.974;2023-05-03T00:25:15;97499.50;;;13.07;53.96
61324;BME280;47203;48.428;11.974;2023-05-03T00:27:20;97486.03;;;13.09;54.30
61324;BME280;47203;48.428;11.974;2023-05-03T00:29:25;97489.44;;;13.09;54.28
61324;BME280;47203;48.428;11.974;2023-05-03T00:31:30;97491.03;;;13.10;54.23
61324;BME280;47203;48.428;11.974;2023-05-03T00:33:35;97494.19;;;13.13;54.24
61324;BME280;47203;48.428;11.974;2023-05-03T00:35:42;97485.22;;;13.08;54.13
61324;BME280;47203;48.428;11.974;2023-05-03T00:37:47;97489.19;;;13.06;54.25
61324;BME280;47203;48.428;11.974;2023-05-03T00:39:52;97483.63;;;13.02;54.57
61324;BME280;47203;48.428;11.974;2023-05-03T00:42:01;97478.34;;;12.97;55.14
61324;BME280;47203;48.428;11.974;2023-05-03T00:44:06;97472.75;;;12.93;54.98
61324;BME280;47203;48.428;11.974;2023-05-03T00:46:11;97478.81;;;12.89;55.15
61324;BME280;47203;48.428;11.974;2023-05-03T00:48:18;97474.06;;;12.86;55.50
61324;BME280;47203;48.428;11.974;2023-05-03T00:50:23;97485.94;;;12.83;55.72
61324;BME280;47203;48.428;11.974;2023-05-03T00:52:28;97474.84;;;12.81;55.88
61324;BME280;47203;48.428;11.974;2023-05-03T00:54:33;97475.09;;;12.80;55.63
61324;BME280;47203;48.428;11.974;2023-05-03T00:56:39;97477.22;;;12.78;55.94
61324;BME280;47203;48.428;11.974;2023-05-03T00:58:55;97472.69;;;12.73;56.38
61324;BME280;47203;48.428;11.974;2023-05-03T01:01:01;97481.69;;;12.72;56.80
61324;BME280;47203;48.428;11.974;2023-05-03T01:03:06;97489.31;;;12.68;56.71
61324;BME280;47203;48.428;11.974;2023-05-03T01:05:11;97485.59;;;12.64;56.83
61324;BME280;47203;48.428;11.974;2023-05-03T01:07:22;97487.69;;;12.57;57.34
61324;BME280;47203;48.428;11.974;2023-05-03T01:09:38;97478.97;;;12.51;57.39
61324;BME280;47203;48.428;11.974;2023-05-03T01:11:54;97478.69;;;12.48;57.73
61324;BME280;47203;48.428;11.974;2023-05-03T01:14:15;97479.47;;;12.43;58.22
61324;BME280;47203;48.428;11.974;2023-05-03T01:16:30;97476.53;;;12.39;58.29
61324;BME280;47203;48.428;11.974;2023-05-03T01:18:38;97477.03;;;12.36;58.04
61324;BME280;47203;48.428;11.974;2023-05-03T01:20:47;97474.38;;;12.31;58.27
61324;BME280;47203;48.428;11.974;2023-05-03T01:23:00;97480.19;;;12.28;58.80
61324;BME280;47203;48.428;11.974;2023-05-03T01:25:12;97478.84;;;12.26;58.34
61324;BME280;47203;48.428;11.974;2023-05-03T01:27:17;97475.94;;;12.27;58.42
61324;BME280;47203;48.428;11.974;2023-05-03T01:29:23;97480.97;;;12.29;58.75
61324;BME280;47203;48.428;11.974;2023-05-03T01:31:32;97474.38;;;12.31;59.17
61324;BME280;47203;48.428;11.974;2023-05-03T01:33:43;97479.69;;;12.36;59.33
61324;BME280;47203;48.428;11.974;2023-05-03T01:35:52;97477.56;;;12.33;58.73
61324;BME280;47203;48.428;11.974;2023-05-03T01:37:58;97480.50;;;12.37;58.86
61324;BME280;47203;48.428;11.974;2023-05-03T01:40:06;97479.97;;;12.40;58.95
61324;BME280;47203;48.428;11.974;2023-05-03T01:42:14;97473.41;;;12.43;59.13
61324;BME280;47203;48.428;11.974;2023-05-03T01:44:21;97477.84;;;12.42;59.18
61324;BME280;47203;48.428;11.974;2023-05-03T01:46:27;97484.44;;;12.39;59.12
61324;BME280;47203;48.428;11.974;2023-05-03T01:48:32;97485.25;;;12.40;58.92
61324;BME280;47203;48.428;11.974;2023-05-03T01:50:37;97483.41;;;12.40;59.33
61324;BME280;47203;48.428;11.974;2023-05-03T01:52:42;97478.91;;;12.41;59.49
61324;BME280;47203;48.428;11.974;2023-05-03T01:54:50;97482.09;;;12.43;59.28
61324;BME280;47203;48.428;11.974;2023-05-03T01:56:54;97476.81;;;12.43;59.09
61324;BME280;47203;48.428;11.974;2023-05-03T01:59:02;97479.47;;;12.43;59.46
61324;BME280;47203;48.428;11.974;2023-05-03T02:01:07;97482.63;;;12.45;59.20
61324;BME280;47203;48.428;11.974;2023-05-03T02:03:12;97481.84;;;12.45;59.33
61324;BME280;47203;48.428;11.974;2023-05-03T02:05:20;97479.19;;;12.45;59.26
61324;BME280;47203;48.428;11.974;2023-05-03T02:07:24;97486.06;;;12.46;58.83
61324;BME280;47203;48.428;11.974;2023-05-03T02:09:30;97487.38;;;12.48;59.20
61324;BME280;47203;48.428;11.974;2023-05-03T02:11:35;97491.63;;;12.49;59.20
61324;BME280;47203;48.428;11.974;2023-05-03T02:13:39;97492.19;;;12.51;59.17
61324;BME280;47203;48.428;11.974;2023-05-03T02:15:47;97481.63;;;12.51;58.90
61324;BME280;47203;48.428;11.974;2023-05-03T02:17:52;97490.06;;;12.53;58.96
61324;BME280;47203;48.428;11.974;2023-05-03T02:19:59;97486.63;;;12.53;58.95
61324;BME280;47203;48.428;11.974;2023-05-03T02:22:06;97487.94;;;12.55;59.00
61324;BME280;47203;48.428;11.974;2023-05-03T02:24:11;97490.84;;;12.54;58.78
61324;BME280;47203;48.428;11.974;2023-05-03T02:26:17;97488.22;;;12.54;58.92
61324;BME280;47203;48.428;11.974;2023-05-03T02:28:22;97496.94;;;12.54;58.99
61324;BME280;47203;48.428;11.974;2023-05-03T02:30:27;97495.09;;;12.55;58.85
61324;BME280;47203;48.428;11.974;2023-05-03T02:32:34;97491.41;;;12.56;58.93
61324;BME280;47203;48.428;11.974;2023-05-03T02:34:43;97490.59;;;12.55;59.12
61324;BME280;47203;48.428;11.974;2023-05-03T02:36:51;97487.69;;;12.57;58.67
61324;BME280;47203;48.428;11.974;2023-05-03T02:38:56;97492.19;;;12.56;59.00
61324;BME280;47203;48.428;11.974;2023-05-03T02:41:01;97492.97;;;12.57;58.66
61324;BME280;47203;48.428;11.974;2023-05-03T02:43:06;97493.53;;;12.59;58.74
61324;BME280;47203;48.428;11.974;2023-05-03T02:45:11;97495.34;;;12.58;58.96
61324;BME280;47203;48.428;11.974;2023-05-03T02:47:16;97489.84;;;12.60;58.68
61324;BME280;47203;48.428;11.974;2023-05-03T02:49:25;97489.84;;;12.60;58.74
61324;BME280;47203;48.428;11.974;2023-05-03T02:51:30;97486.13;;;12.61;58.65
61324;BME280;47203;48.428;11.974;2023-05-03T02:53:34;97482.44;;;12.62;58.67
61324;BME280;47203;48.428;11.974;2023-05-03T02:55:40;97481.41;;;12.63;58.57
61324;BME280;47203;48.428;11.974;2023-05-03T02:57:44;97480.59;;;12.63;58.51
61324;BME280;47203;48.428;11.974;2023-05-03T02:59:52;97475.31;;;12.63;58.60
61324;BME280;47203;48.428;11.974;2023-05-03T03:01:57;97474.53;;;12.62;58.47
61324;BME280;47203;48.428;11.974;2023-05-03T03:04:04;97479.53;;;12.64;58.35
61324;BME280;47203;48.428;11.974;2023-05-03T03:06:12;97478.75;;;12.63;58.37
61324;BME280;47203;48.428;11.974;2023-05-03T03:08:17;97481.13;;;12.65;58.32
61324;BME280;47203;48.428;11.974;2023-05-03T03:10:22;97488.00;;;12.66;58.18
61324;BME280;47203;48.428;11.974;2023-05-03T03:12:28;97483.25;;;12.68;58.33
61324;BME280;47203;48.428;11.974;2023-05-03T03:14:34;97486.69;;;12.68;58.49
61324;BME280;47203;48.428;11.974;2023-05-03T03:16:39;97480.34;;;12.69;58.43
61324;BME280;47203;48.428;11.974;2023-05-03T03:18:43;97486.16;;;12.71;58.54
61324;BME280;47203;48.428;11.974;2023-05-03T03:20:49;97482.47;;;12.72;58.53
61324;BME280;47203;48.428;11.974;2023-05-03T03:22:58;97487.75;;;12.72;58.22
61324;BME280;47203;48.428;11.974;2023-05-03T03:25:03;97484.34;;;12.72;58.21
61324;BME280;47203;48.428;11.974;2023-05-03T03:27:08;97485.13;;;12.72;57.98
61324;BME280;47203;48.428;11.974;2023-05-03T03:29:13;97475.34;;;12.73;58.23
61324;BME280;47203;48.428;11.974;2023-05-03T03:31:19;97468.50;;;12.72;58.17
61324;BME280;47203;48.428;11.974;2023-05-03T03:33:24;97469.28;;;12.72;58.07
61324;BME280;47203;48.428;11.974;2023-05-03T03:35:36;97472.69;;;12.73;58.24
61324;BME280;47203;48.428;11.974;2023-05-03T03:37:42;97477.72;;;12.74;58.11
61324;BME280;47203;48.428;11.974;2023-05-03T03:39:50;97477.72;;;12.74;58.55
61324;BME280;47203;48.428;11.974;2023-05-03T03:41:55;97481.69;;;12.77;58.43
61324;BME280;47203;48.428;11.974;2023-05-03T03:44:01;97483.81;;;12.80;58.36
61324;BME280;47203;48.428;11.974;2023-05-03T03:46:06;97477.50;;;12.81;58.34
61324;BME280;47203;48.428;11.974;2023-05-03T03:48:11;97482.50;;;12.83;58.24
61324;BME280;47203;48.428;11.974;2023-05-03T03:50:15;97483.03;;;12.85;58.29
61324;BME280;47203;48.428;11.974;2023-05-03T03:52:20;97484.63;;;12.86;58.32
61324;BME280;47203;48.428;11.974;2023-05-03T03:54:25;97485.41;;;12.86;58.10
61324;BME280;47203;48.428;11.974;2023-05-03T03:56:33;97484.38;;;12.87;58.34
61324;BME280;47203;48.428;11.974;2023-05-03T03:58:38;97486.50;;;12.85;58.35
61324;BME280;47203;48.428;11.974;2023-05-03T04:00:45;97488.31;;;12.85;58.21
61324;BME280;47203;48.428;11.974;2023-05-03T04:02:53;97484.63;;;12.81;58.05
61324;BME280;47203;48.428;11.974;2023-05-03T04:04:59;97490.97;;;12.80;58.27
61324;BME280;47203;48.428;11.974;2023-05-03T04:07:04;97497.28;;;12.79;58.42
61324;BME280;47203;48.428;11.974;2023-05-03T04:09:09;97493.06;;;12.78;58.13
61324;BME280;47203;48.428;11.974;2023-05-03T04:11:14;97498.38;;;12.78;58.49
61324;BME280;47203;48.428;11.974;2023-05-03T04:13:27;97499.16;;;12.78;58.19
61324;BME280;47203;48.428;11.974;2023-05-03T04:15:33;97497.56;;;12.77;58.47
61324;BME280;47203;48.428;11.974;2023-05-03T04:17:39;97502.56;;;12.79;58.68
61324;BME280;47203;48.428;11.974;2023-05-03T04:19:45;97505.75;;;12.81;58.44
61324;BME280;47203;48.428;11.974;2023-05-03T04:21:50;97516.06;;;12.82;58.61
61324;BME280;47203;48.428;11.974;2023-05-03T04:23:55;97517.91;;;12.82;58.49
61324;BME280;47203;48.428;11.974;2023-05-03T04:26:01;97519.75;;;12.81;58.63
61324;BME280;47203;48.428;11.974;2023-05-03T04:28:08;97518.97;;;12.81;58.49
61324;BME280;47203;48.428;11.974;2023-05-03T04:30:19;97518.97;;;12.81;58.76
61324;BME280;47203;48.428;11.974;2023-05-03T04:32:27;97518.97;;;12.81;58.51
61324;BME280;47203;48.428;11.974;2023-05-03T04:34:43;97521.06;;;12.79;58.74
61324;BME280;47203;48.428;11.974;2023-05-03T04:36:51;97522.38;;;12.76;59.02
61324;BME280;47203;48.428;11.974;2023-05-03T04:38:57;97515.78;;;12.73;58.96
61324;BME280;47203;48.428;11.974;2023-05-03T04:41:02;97526.59;;;12.72;58.84
61324;BME280;47203;48.428;11.974;2023-05-03T04:43:07;97522.63;;;12.69;58.92
61324;BME280;47203;48.428;11.974;2023-05-03T04:45:19;97523.13;;;12.66;59.08
61324;BME280;47203;48.428;11.974;2023-05-03T04:47:24;97528.69;;;12.65;59.41
61324;BME280;47203;48.428;11.974;2023-05-03T04:49:29;97527.59;;;12.66;59.07
61324;BME280;47203;48.428;11.974;2023-05-03T04:51:35;97529.72;;;12.64;59.27
61324;BME280;47203;48.428;11.974;2023-05-03T04:53:40;97527.34;;;12.62;59.04
61324;BME280;47203;48.428;11.974;2023-05-03T04:55:49;97529.97;;;12.62;59.48
61324;BME280;47203;48.428;11.974;2023-05-03T04:57:54;97531.03;;;12.61;59.10
61324;BME280;47203;48.428;11.974;2023-05-03T04:59:59;97535.53;;;12.61;59.52
61324;BME280;47203;48.428;11.974;2023-05-03T05:02:08;97541.31;;;12.63;59.33
61324;BME280;47203;48.428;11.974;2023-05-03T05:04:14;97541.06;;;12.64;59.67
61324;BME280;47203;48.428;11.974;2023-05-03T05:06:23;97541.06;;;12.64;59.75
61324;BME280;47203;48.428;11.974;2023-05-03T05:08:28;97545.06;;;12.67;59.43
61324;BME280;47203;48.428;11.974;2023-05-03T05:10:36;97547.69;;;12.67;59.45
61324;BME280;47203;48.428;11.974;2023-05-03T05:12:42;97551.94;;;12.68;59.65
61324;BME280;47203;48.428;11.974;2023-05-03T05:14:47;97552.47;;;12.70;59.69
61324;BME280;47203;48.428;11.974;2023-05-03T05:16:52;97553.78;;;12.72;59.75
61324;BME280;47203;48.428;11.974;2023-05-03T05:19:00;97555.66;;;12.72;59.63
61324;BME280;47203;48.428;11.974;2023-05-03T05:21:05;97557.22;;;12.73;59.69
61324;BME280;47203;48.428;11.974;2023-05-03T05:23:11;97556.97;;;12.74;59.81
61324;BME280;47203;48.428;11.974;2023-05-03T05:25:20;97562.81;;;12.77;59.42
61324;BME280;47203;48.428;11.974;2023-05-03T05:27:25;97559.91;;;12.78;59.87
61324;BME280;47203;48.428;11.974;2023-05-03T05:29:33;97566.78;;;12.79;59.36
61324;BME280;47203;48.428;11.974;2023-05-03T05:31:38;97571.81;;;12.81;59.37
61324;BME280;47203;48.428;11.974;2023-05-03T05:33:44;97563.63;;;12.82;59.73
61324;BME280;47203;48.428;11.974;2023-05-03T05:35:51;97562.56;;;12.83;59.62
61324;BME280;47203;48.428;11.974;2023-05-03T05:37:56;97569.19;;;12.86;59.68
61324;BME280;47203;48.428;11.974;2023-05-03T05:40:03;97567.56;;;12.85;59.79
61324;BME280;47203;48.428;11.974;2023-05-03T05:42:15;97576.31;;;12.85;59.65
61324;BME280;47203;48.428;11.974;2023-05-03T05:44:20;97574.47;;;12.86;59.70
61324;BME280;47203;48.428;11.974;2023-05-03T05:46:26;97568.13;;;12.87;59.47
61324;BME280;47203;48.428;11.974;2023-05-03T05:48:31;97576.84;;;12.87;59.32
61324;BME280;47203;48.428;11.974;2023-05-03T05:50:36;97577.41;;;12.89;59.42
61324;BME280;47203;48.428;11.974;2023-05-03T05:52:50;97582.69;;;12.89;59.55
61324;BME280;47203;48.428;11.974;2023-05-03T05:54:57;97582.69;;;12.89;59.50
61324;BME280;47203;48.428;11.974;2023-05-03T05:57:02;97582.16;;;12.92;59.55
61324;BME280;47203;48.428;11.974;2023-05-03T05:59:08;97575.81;;;12.93;59.65
61324;BME280;47203;48.428;11.974;2023-05-03T06:01:12;97580.84;;;12.95;59.76
61324;BME280;47203;48.428;11.974;2023-05-03T06:03:17;97573.72;;;12.96;59.90
61324;BME280;47203;48.428;11.974;2023-05-03T06:05:24;97575.06;;;12.98;60.01
61324;BME280;47203;48.428;11.974;2023-05-03T06:07:29;97579.00;;;13.01;59.65
61324;BME280;47203;48.428;11.974;2023-05-03T06:09:36;97576.38;;;13.01;60.02
61324;BME280;47203;48.428;11.974;2023-05-03T06:11:41;97580.59;;;13.02;59.69
61324;BME280;47203;48.428;11.974;2023-05-03T06:13:47;97584.59;;;13.04;59.94
61324;BME280;47203;48.428;11.974;2023-05-03T06:15:53;97582.72;;;13.05;59.97
61324;BME280;47203;48.428;11.974;2023-05-03T06:17:58;97582.47;;;13.06;59.87
61324;BME280;47203;48.428;11.974;2023-05-03T06:20:05;97580.38;;;13.08;59.96
61324;BME280;47203;48.428;11.974;2023-05-03T06:22:14;97576.66;;;13.09;60.04
61324;BME280;47203;48.428;11.974;2023-05-03T06:24:22;97580.13;;;13.10;59.99
61324;BME280;47203;48.428;11.974;2023-05-03T06:26:34;97576.41;;;13.11;60.23
61324;BME280;47203;48.428;11.974;2023-05-03T06:28:40;97586.47;;;13.14;59.93
61324;BME280;47203;48.428;11.974;2023-05-03T06:30:47;97585.41;;;13.15;60.31
61324;BME280;47203;48.428;11.974;2023-05-03T06:32:53;97593.63;;;13.19;60.43
61324;BME280;47203;48.428;11.974;2023-05-03T06:34:57;97602.09;;;13.21;60.20
61324;BME280;47203;48.428;11.974;2023-05-03T06:37:03;97590.19;;;13.23;60.23
61324;BME280;47203;48.428;11.974;2023-05-03T06:39:08;97586.50;;;13.24;60.02
61324;BME280;47203;48.428;11.974;2023-05-03T06:41:13;97587.56;;;13.28;60.40
61324;BME280;47203;48.428;11.974;2023-05-03T06:43:20;97584.66;;;13.30;60.44
61324;BME280;47203;48.428;11.974;2023-05-03T06:45:34;97591.03;;;13.34;60.25
61324;BME280;47203;48.428;11.974;2023-05-03T06:47:39;97588.13;;;13.36;60.55
61324;BME280;47203;48.428;11.974;2023-05-03T06:49:44;97591.88;;;13.40;60.32
61324;BME280;47203;48.428;11.974;2023-05-03T06:51:49;97592.16;;;13.43;60.51
61324;BME280;47203;48.428;11.974;2023-05-03T06:53:54;97594.00;;;13.48;60.53
61324;BME280;47203;48.428;11.974;2023-05-03T06:56:01;97598.78;;;13.51;60.44
61324;BME280;47203;48.428;11.974;2023-05-03T06:58:06;97592.94;;;13.54;60.60
61324;BME280;47203;48.428;11.974;2023-05-03T07:00:16;97594.28;;;13.57;60.80
61324;BME280;47203;48.428;11.974;2023-05-03T07:02:21;97602.47;;;13.60;60.42
61324;BME280;47203;48.428;11.974;2023-05-03T07:04:26;97596.16;;;13.61;60.77
61324;BME280;47203;48.428;11.974;2023-05-03T07:06:31;97590.31;;;13.65;60.76
61324;BME280;47203;48.428;11.974;2023-05-03T07:08:56;97592.72;;;13.66;60.43
61324;BME280;47203;48.428;11.974;2023-05-03T07:11:01;97594.31;;;13.67;60.54
61324;BME280;47203;48.428;11.974;2023-05-03T07:13:06;97589.53;;;13.69;60.30
61324;BME280;47203;48.428;11.974;2023-05-03T07:15:11;97598.03;;;13.71;60.60
61324;BME280;47203;48.428;11.974;2023-05-03T07:17:18;97590.88;;;13.72;60.85
61324;BME280;47203;48.428;11.974;2023-05-03T07:19:23;97587.19;;;13.73;60.73
61324;BME280;47203;48.428;11.974;2023-05-03T07:21:28;97585.03;;;13.75;60.59
61324;BME280;47203;48.428;11.974;2023-05-03T07:23:34;97587.97;;;13.78;60.74
61324;BME280;47203;48.428;11.974;2023-05-03T07:25:39;97582.16;;;13.82;60.64
61324;BME280;47203;48.428;11.974;2023-05-03T07:27:44;97581.06;;;13.83;60.76
61324;BME280;47203;48.428;11.974;2023-05-03T07:29:49;97581.38;;;13.86;60.84
61324;BME280;47203;48.428;11.974;2023-05-03T07:31:54;97578.44;;;13.88;60.73
61324;BME280;47203;48.428;11.974;2023-05-03T07:34:02;97577.91;;;13.91;60.86
61324;BME280;47203;48.428;11.974;2023-05-03T07:36:07;97581.91;;;13.93;60.49
61324;BME280;47203;48.428;11.974;2023-05-03T07:38:12;97584.00;;;13.96;60.53
61324;BME280;47203;48.428;11.974;2023-05-03T07:40:17;97584.53;;;13.99;60.45
61324;BME280;47203;48.428;11.974;2023-05-03T07:42:22;97580.56;;;14.01;60.56
61324;BME280;47203;48.428;11.974;2023-05-03T07:44:27;97580.28;;;14.03;60.62
61324;BME280;47203;48.428;11.974;2023-05-03T07:46:31;97586.91;;;14.05;60.50
61324;BME280;47203;48.428;11.974;2023-05-03T07:48:36;97578.44;;;14.08;60.84
61324;BME280;47203;48.428;11.974;2023-05-03T07:50:44;97573.94;;;14.09;60.64
61324;BME280;47203;48.428;11.974;2023-05-03T07:52:49;97581.63;;;14.10;60.33
61324;BME280;47203;48.428;11.974;2023-05-03T07:54:54;97582.16;;;14.12;60.72
61324;BME280;47203;48.428;11.974;2023-05-03T07:56:59;97579.75;;;14.16;60.48
61324;BME280;47203;48.428;11.974;2023-05-03T07:59:05;97578.72;;;14.17;60.34
61324;BME280;47203;48.428;11.974;2023-05-03T08:01:11;97578.44;;;14.19;60.79
61324;BME280;47203;48.428;11.974;2023-05-03T08:03:16;97580.81;;;14.20;60.52
61324;BME280;47203;48.428;11.974;2023-05-03T08:05:21;97579.50;;;14.23;60.39
61324;BME280;47203;48.428;11.974;2023-05-03T08:07:29;97575.00;;;14.23;60.27
61324;BME280;47203;48.428;11.974;2023-05-03T08:09:34;97575.53;;;14.25;60.25
61324;BME280;47203;48.428;11.974;2023-05-03T08:11:39;97576.06;;;14.27;60.50
61324;BME280;47203;48.428;11.974;2023-05-03T08:13:45;97566.00;;;14.29;60.27
61324;BME280;47203;48.428;11.974;2023-05-03T08:15:50;97565.72;;;14.31;60.72
61324;BME280;47203;48.428;11.974;2023-05-03T08:17:55;97567.31;;;14.32;60.56
61324;BME280;47203;48.428;11.974;2023-05-03T08:20:00;97567.03;;;14.34;60.93
61324;BME280;47203;48.428;11.974;2023-05-03T08:22:08;97569.16;;;14.37;60.91
61324;BME280;47203;48.428;11.974;2023-05-03T08:24:17;97559.38;;;14.37;60.48
61324;BME280;47203;48.428;11.974;2023-05-03T08:26:22;97567.81;;;14.39;60.75
61324;BME280;47203;48.428;11.974;2023-05-03T08:28:29;97564.13;;;14.40;60.71
61324;BME280;47203;48.428;11.974;2023-05-03T08:30:34;97562.78;;;14.43;60.87
61324;BME280;47203;48.428;11.974;2023-05-03T08:32:39;97574.69;;;14.45;60.56
61324;BME280;47203;48.428;11.974;2023-05-03T08:34:44;97571.00;;;14.46;60.62
61324;BME280;47203;48.428;11.974;2023-05-03T08:36:49;97568.06;;;14.48;60.53
61324;BME280;47203;48.428;11.974;2023-05-03T08:38:54;97568.88;;;14.48;60.39
61324;BME280;47203;48.428;11.974;2023-05-03T08:41:11;97569.41;;;14.51;60.61
61324;BME280;47203;48.428;11.974;2023-05-03T08:43:19;97563.03;;;14.52;60.83
61324;BME280;47203;48.428;11.974;2023-05-03T08:45:24;97561.97;;;14.53;60.52
61324;BME280;47203;48.428;11.974;2023-05-03T08:47:29;97565.16;;;14.55;60.97
61324;BME280;47203;48.428;11.974;2023-05-03T08:49:40;97566.22;;;14.54;60.74
61324;BME280;47203;48.428;11.974;2023-05-03T08:51:46;97564.88;;;14.56;60.83
61324;BME280;47203;48.428;11.974;2023-05-03T08:53:51;97565.66;;;14.57;60.61
61324;BME280;47203;48.428;11.974;2023-05-03T08:55:55;97568.03;;;14.58;60.36
61324;BME280;47203;48.428;11.974;2023-05-03T08:58:06;97568.03;;;14.58;60.65
61324;BME280;47203;48.428;11.974;2023-05-03T09:00:14;97562.22;;;14.51;60.80
61324;BME280;47203;48.428;11.974;2023-05-03T09:02:20;97564.63;;;14.53;60.68
61324;BME280;47203;48.428;11.974;2023-05-03T09:04:31;97563.28;;;14.55;60.93
61324;BME280;47203;48.428;11.974;2023-05-03T09:06:37;97566.47;;;14.57;60.70
61324;BME280;47203;48.428;11.974;2023-05-03T09:08:42;97567.00;;;14.59;61.05
61324;BME280;47203;48.428;11.974;2023-05-03T09:10:47;97574.44;;;14.62;60.64
61324;BME280;47203;48.428;11.974;2023-05-03T09:12:57;97566.47;;;14.62;60.94
61324;BME280;47203;48.428;11.974;2023-05-03T09:15:06;97565.44;;;14.63;60.75
61324;BME280;47203;48.428;11.974;2023-05-03T09:17:13;97571.25;;;14.65;60.91
61324;BME280;47203;48.428;11.974;2023-05-03T09:19:19;97568.31;;;14.67;60.92
61324;BME280;47203;48.428;11.974;2023-05-03T09:21:25;97564.34;;;14.70;61.10
61324;BME280;47203;48.428;11.974;2023-05-03T09:23:30;97564.84;;;14.72;60.80
61324;BME280;47203;48.428;11.974;2023-05-03T09:25:45;97566.19;;;14.74;62.14
61324;BME280;47203;48.428;11.974;2023-05-03T09:27:59;97561.41;;;14.76;61.74
61324;BME280;47203;48.428;11.974;2023-05-03T09:30:18;97562.44;;;14.80;61.87
61324;BME280;47203;48.428;11.974;2023-05-03T09:32:23;97564.56;;;14.83;62.09
61324;BME280;47203;48.428;11.974;2023-05-03T09:34:30;97561.09;;;14.88;62.23
61324;BME280;47203;48.428;11.974;2023-05-03T09:36:45;97560.03;;;14.94;62.87
61324;BME280;47203;48.428;11.974;2023-05-03T09:38:51;97562.38;;;15.01;62.71
61324;BME280;47203;48.428;11.974;2023-05-03T09:40:57;97564.72;;;15.08;62.82
61324;BME280;47203;48.428;11.974;2023-05-03T09:43:09;97560.19;;;15.13;63.31
61324;BME280;47203;48.428;11.974;2023-05-03T09:45:22;97566.28;;;15.19;63.15
61324;BME280;47203;48.428;11.974;2023-05-03T09:47:28;97568.88;;;15.24;63.32
61324;BME280;47203;48.428;11.974;2023-05-03T09:49:36;97567.28;;;15.28;63.28
61324;BME280;47203;48.428;11.974;2023-05-03T09:51:42;97570.47;;;15.30;63.04
61324;BME280;47203;48.428;11.974;2023-05-03T09:53:48;97564.63;;;15.33;63.47
61324;BME280;47203;48.428;11.974;2023-05-03T09:55:53;97565.13;;;15.35;63.32
61324;BME280;47203;48.428;11.974;2023-05-03T09:57:58;97570.97;;;15.38;63.56
61324;BME280;47203;48.428;11.974;2023-05-03T10:00:06;97567.50;;;15.37;63.19
61324;BME280;47203;48.428;11.974;2023-05-03T10:02:15;97565.66;;;15.38;63.61
61324;BME280;47203;48.428;11.974;2023-05-03T10:04:24;97568.81;;;15.40;63.63
61324;BME280;47203;48.428;11.974;2023-05-03T10:06:32;97565.09;;;15.41;63.53
61324;BME280;47203;48.428;11.974;2023-05-03T10:08:40;97561.38;;;15.42;63.32
61324;BME280;47203;48.428;11.974;2023-05-03T10:10:48;97564.56;;;15.44;63.17
61324;BME280;47203;48.428;11.974;2023-05-03T10:12:55;97552.84;;;15.45;63.20
61324;BME280;47203;48.428;11.974;2023-05-03T10:15:02;97557.09;;;15.46;63.22
61324;BME280;47203;48.428;11.974;2023-05-03T10:17:19;97557.91;;;15.46;63.28
61324;BME280;47203;48.428;11.974;2023-05-03T10:19:50;97556.03;;;15.47;63.07
61324;BME280;47203;48.428;11.974;2023-05-03T10:22:02;97552.59;;;15.46;62.65
61324;BME280;47203;48.428;11.974;2023-05-03T10:24:11;97548.63;;;15.44;62.51
61324;BME280;47203;48.428;11.974;2023-05-03T10:26:17;97542.50;;;15.43;62.43
61324;BME280;47203;48.428;11.974;2023-05-03T10:28:23;97547.03;;;15.43;62.25
61324;BME280;47203;48.428;11.974;2023-05-03T10:30:29;97544.66;;;15.41;62.37
61324;BME280;47203;48.428;11.974;2023-05-03T10:32:38;97535.13;;;15.40;62.12
61324;BME280;47203;48.428;11.974;2023-05-03T10:34:45;97549.19;;;15.41;62.16
61324;BME280;47203;48.428;11.974;2023-05-03T10:36:51;97547.59;;;15.40;62.41
61324;BME280;47203;48.428;11.974;2023-05-03T10:38:57;97551.31;;;15.39;62.49
61324;BME280;47203;48.428;11.974;2023-05-03T10:41:02;97548.16;;;15.36;61.98
61324;BME280;47203;48.428;11.974;2023-05-03T10:43:43;97551.06;;;15.35;61.92
61324;BME280;47203;48.428;11.974;2023-05-03T10:45:50;97547.88;;;15.33;61.99
61324;BME280;47203;48.428;11.974;2023-05-03T10:48:19;97549.75;;;15.32;62.23
61324;BME280;47203;48.428;11.974;2023-05-03T10:50:28;97548.97;;;15.32;62.16
61324;BME280;47203;48.428;11.974;2023-05-03T10:52:46;97542.06;;;15.31;62.63
61324;BME280;47203;48.428;11.974;2023-05-03T10:54:52;97544.72;;;15.31;62.24
61324;BME280;47203;48.428;11.974;2023-05-03T10:56:57;97539.41;;;15.31;62.43
61324;BME280;47203;48.428;11.974;2023-05-03T10:59:02;97550.81;;;15.31;62.67
61324;BME280;47203;48.428;11.974;2023-05-03T11:01:09;97539.16;;;15.32;62.67
61324;BME280;47203;48.428;11.974;2023-05-03T11:03:33;97540.75;;;15.33;63.33